sensor_id;sensor_type;location;lat;lon;timestamp;temperature;humidity
75738;DHT22;64356;45.638;13.764;2022-11-22T00:00:38;20.10;67.00
75738;DHT22;64356;45.638;13.764;2022-11-22T00:03:04;20.00;67.50
75738;DHT22;64356;45.638;13.764;2022-11-22T00:05:30;20.10;67.60
75738;DHT22;64356;45.638;13.764;2022-11-22T00:07:55;20.00;67.60
75738;DHT22;64356;45.638;13.764;2022-11-22T00:10:21;20.00;67.70
75738;DHT22;64356;45.638;13.764;2022-11-22T00:12:47;20.00;67.90
75738;DHT22;64356;45.638;13.764;2022-11-22T00:15:13;20.00;67.70
75738;DHT22;64356;45.638;13.764;2022-11-22T00:17:39;20.00;68.10
75738;DHT22;64356;45.638;13.764;2022-11-22T00:20:06;20.00;67.50
75738;DHT22;64356;45.638;13.764;2022-11-22T00:22:33;20.00;67.50
75738;DHT22;64356;45.638;13.764;2022-11-22T00:24:59;20.00;68.20
75738;DHT22;64356;45.638;13.764;2022-11-22T00:27:24;20.00;67.70
75738;DHT22;64356;45.638;13.764;2022-11-22T00:29:50;20.00;68.10
75738;DHT22;64356;45.638;13.764;2022-11-22T00:32:15;20.00;68.50
75738;DHT22;64356;45.638;13.764;2022-11-22T00:34:41;20.00;68.70
75738;DHT22;64356;45.638;13.764;2022-11-22T00:37:07;20.00;68.30
75738;DHT22;64356;45.638;13.764;2022-11-22T00:39:33;20.00;68.90
75738;DHT22;64356;45.638;13.764;2022-11-22T00:41:59;20.00;69.00
75738;DHT22;64356;45.638;13.764;2022-11-22T00:44:24;20.00;68.60
75738;DHT22;64356;45.638;13.764;2022-11-22T00:46:50;20.00;68.90
75738;DHT22;64356;45.638;13.764;2022-11-22T00:49:16;20.00;68.90
75738;DHT22;64356;45.638;13.764;2022-11-22T00:51:41;20.00;69.00
75738;DHT22;64356;45.638;13.764;2022-11-22T00:54:07;20.00;69.70
75738;DHT22;64356;45.638;13.764;2022-11-22T00:56:33;20.00;69.40
75738;DHT22;64356;45.638;13.764;2022-11-22T00:59:00;20.00;69.20
75738;DHT22;64356;45.638;13.764;2022-11-22T01:01:26;20.00;69.70
75738;DHT22;64356;45.638;13.764;2022-11-22T01:03:51;20.00;69.10
75738;DHT22;64356;45.638;13.764;2022-11-22T01:06:17;19.90;69.00
75738;DHT22;64356;45.638;13.764;2022-11-22T01:08:43;20.00;69.30
75738;DHT22;64356;45.638;13.764;2022-11-22T01:11:10;19.90;69.70
75738;DHT22;64356;45.638;13.764;2022-11-22T01:13:35;20.00;70.00
75738;DHT22;64356;45.638;13.764;2022-11-22T01:16:03;19.90;69.90
75738;DHT22;64356;45.638;13.764;2022-11-22T01:18:30;19.90;69.20
75738;DHT22;64356;45.638;13.764;2022-11-22T01:20:56;19.90;70.10
75738;DHT22;64356;45.638;13.764;2022-11-22T01:23:22;19.90;69.70
75738;DHT22;64356;45.638;13.764;2022-11-22T01:25:48;19.90;69.70
75738;DHT22;64356;45.638;13.764;2022-11-22T01:28:14;19.90;70.10
75738;DHT22;64356;45.638;13.764;2022-11-22T01:30:41;19.90;70.60
75738;DHT22;64356;45.638;13.764;2022-11-22T01:33:07;19.90;70.80
75738;DHT22;64356;45.638;13.764;2022-11-22T01:35:32;19.90;70.50
75738;DHT22;64356;45.638;13.764;2022-11-22T01:37:58;20.00;71.60
75738;DHT22;64356;45.638;13.764;2022-11-22T01:40:23;20.00;71.30
75738;DHT22;64356;45.638;13.764;2022-11-22T01:42:52;20.00;71.20
75738;DHT22;64356;45.638;13.764;2022-11-22T01:48:06;20.00;71.10
75738;DHT22;64356;45.638;13.764;2022-11-22T01:50:40;19.90;70.90
75738;DHT22;64356;45.638;13.764;2022-11-22T01:53:13;20.00;71.30
75738;DHT22;64356;45.638;13.764;2022-11-22T01:55:40;19.90;70.60
75738;DHT22;64356;45.638;13.764;2022-11-22T01:58:08;19.90;71.30
75738;DHT22;64356;45.638;13.764;2022-11-22T02:00:35;19.90;71.10
75738;DHT22;64356;45.638;13.764;2022-11-22T02:03:03;19.90;71.70
75738;DHT22;64356;45.638;13.764;2022-11-22T02:05:34;20.00;71.40
75738;DHT22;64356;45.638;13.764;2022-11-22T02:08:11;19.90;71.40
75738;DHT22;64356;45.638;13.764;2022-11-22T02:10:43;20.00;71.70
75738;DHT22;64356;45.638;13.764;2022-11-22T02:13:10;20.00;71.20
75738;DHT22;64356;45.638;13.764;2022-11-22T02:15:37;20.00;71.60
75738;DHT22;64356;45.638;13.764;2022-11-22T02:18:03;20.00;71.30
75738;DHT22;64356;45.638;13.764;2022-11-22T02:20:28;20.00;71.80
75738;DHT22;64356;45.638;13.764;2022-11-22T02:23:16;20.00;71.90
75738;DHT22;64356;45.638;13.764;2022-11-22T02:25:55;20.00;72.30
75738;DHT22;64356;45.638;13.764;2022-11-22T02:28:21;20.00;71.90
75738;DHT22;64356;45.638;13.764;2022-11-22T02:30:47;20.00;71.80
75738;DHT22;64356;45.638;13.764;2022-11-22T02:33:12;20.00;71.90
75738;DHT22;64356;45.638;13.764;2022-11-22T02:35:39;20.00;71.90
75738;DHT22;64356;45.638;13.764;2022-11-22T02:38:20;20.00;71.60
75738;DHT22;64356;45.638;13.764;2022-11-22T02:40:51;20.00;71.60
75738;DHT22;64356;45.638;13.764;2022-11-22T02:43:29;20.00;71.50
75738;DHT22;64356;45.638;13.764;2022-11-22T02:46:11;20.00;71.50
75738;DHT22;64356;45.638;13.764;2022-11-22T02:48:41;20.00;71.60
75738;DHT22;64356;45.638;13.764;2022-11-22T02:51:07;20.00;71.50
75738;DHT22;64356;45.638;13.764;2022-11-22T02:53:32;20.00;71.50
75738;DHT22;64356;45.638;13.764;2022-11-22T02:55:58;20.00;71.40
75738;DHT22;64356;45.638;13.764;2022-11-22T02:58:24;20.00;71.40
75738;DHT22;64356;45.638;13.764;2022-11-22T03:00:49;20.00;71.20
75738;DHT22;64356;45.638;13.764;2022-11-22T03:03:15;20.00;71.20
75738;DHT22;64356;45.638;13.764;2022-11-22T03:05:41;20.00;71.20
75738;DHT22;64356;45.638;13.764;2022-11-22T03:08:06;20.00;71.20
75738;DHT22;64356;45.638;13.764;2022-11-22T03:10:32;20.00;71.20
75738;DHT22;64356;45.638;13.764;2022-11-22T03:12:57;20.00;71.30
75738;DHT22;64356;45.638;13.764;2022-11-22T03:15:24;20.00;71.10
75738;DHT22;64356;45.638;13.764;2022-11-22T03:17:56;20.00;71.20
75738;DHT22;64356;45.638;13.764;2022-11-22T03:20:22;20.00;71.10
75738;DHT22;64356;45.638;13.764;2022-11-22T03:22:48;20.00;71.00
75738;DHT22;64356;45.638;13.764;2022-11-22T03:25:13;20.00;71.00
75738;DHT22;64356;45.638;13.764;2022-11-22T03:27:39;20.00;70.80
75738;DHT22;64356;45.638;13.764;2022-11-22T03:30:05;20.00;70.80
75738;DHT22;64356;45.638;13.764;2022-11-22T03:32:31;20.00;71.00
75738;DHT22;64356;45.638;13.764;2022-11-22T03:34:56;20.00;70.80
75738;DHT22;64356;45.638;13.764;2022-11-22T03:37:22;20.00;70.50
75738;DHT22;64356;45.638;13.764;2022-11-22T03:39:47;20.00;70.30
75738;DHT22;64356;45.638;13.764;2022-11-22T03:42:13;20.00;70.30
75738;DHT22;64356;45.638;13.764;2022-11-22T03:44:39;20.00;70.00
75738;DHT22;64356;45.638;13.764;2022-11-22T03:47:05;20.00;69.90
75738;DHT22;64356;45.638;13.764;2022-11-22T03:49:30;20.00;69.70
75738;DHT22;64356;45.638;13.764;2022-11-22T03:51:56;20.00;69.60
75738;DHT22;64356;45.638;13.764;2022-11-22T03:54:21;20.00;69.60
75738;DHT22;64356;45.638;13.764;2022-11-22T03:56:47;20.00;69.50
75738;DHT22;64356;45.638;13.764;2022-11-22T03:59:13;20.00;69.90
75738;DHT22;64356;45.638;13.764;2022-11-22T04:01:38;20.00;69.60
75738;DHT22;64356;45.638;13.764;2022-11-22T04:04:04;19.90;69.40
75738;DHT22;64356;45.638;13.764;2022-11-22T04:06:30;20.00;69.30
75738;DHT22;64356;45.638;13.764;2022-11-22T04:08:55;20.00;69.50
75738;DHT22;64356;45.638;13.764;2022-11-22T04:11:21;20.00;69.80
75738;DHT22;64356;45.638;13.764;2022-11-22T04:13:47;20.00;69.50
75738;DHT22;64356;45.638;13.764;2022-11-22T04:16:31;20.00;69.70
75738;DHT22;64356;45.638;13.764;2022-11-22T04:18:56;20.00;69.30
75738;DHT22;64356;45.638;13.764;2022-11-22T04:21:22;20.00;69.50
75738;DHT22;64356;45.638;13.764;2022-11-22T04:24:10;19.90;69.30
75738;DHT22;64356;45.638;13.764;2022-11-22T04:26:55;19.90;69.50
75738;DHT22;64356;45.638;13.764;2022-11-22T04:29:21;19.90;69.10
75738;DHT22;64356;45.638;13.764;2022-11-22T04:31:47;19.90;69.40
75738;DHT22;64356;45.638;13.764;2022-11-22T04:34:32;19.90;69.70
75738;DHT22;64356;45.638;13.764;2022-11-22T04:36:59;19.90;69.90
75738;DHT22;64356;45.638;13.764;2022-11-22T04:39:25;19.90;69.40
75738;DHT22;64356;45.638;13.764;2022-11-22T04:41:52;19.90;69.50
75738;DHT22;64356;45.638;13.764;2022-11-22T04:44:38;19.90;69.50
75738;DHT22;64356;45.638;13.764;2022-11-22T04:47:08;19.90;69.50
75738;DHT22;64356;45.638;13.764;2022-11-22T04:49:34;19.90;69.50
75738;DHT22;64356;45.638;13.764;2022-11-22T04:51:59;19.90;69.50
75738;DHT22;64356;45.638;13.764;2022-11-22T04:54:44;19.90;69.90
75738;DHT22;64356;45.638;13.764;2022-11-22T04:57:09;19.90;70.20
75738;DHT22;64356;45.638;13.764;2022-11-22T04:59:35;19.90;70.00
75738;DHT22;64356;45.638;13.764;2022-11-22T05:02:01;19.90;69.60
75738;DHT22;64356;45.638;13.764;2022-11-22T05:04:26;19.90;69.80
75738;DHT22;64356;45.638;13.764;2022-11-22T05:06:52;19.90;69.70
75738;DHT22;64356;45.638;13.764;2022-11-22T05:09:18;19.90;69.80
75738;DHT22;64356;45.638;13.764;2022-11-22T05:11:43;19.90;69.60
75738;DHT22;64356;45.638;13.764;2022-11-22T05:14:09;19.90;69.60
75738;DHT22;64356;45.638;13.764;2022-11-22T05:16:35;19.90;69.80
75738;DHT22;64356;45.638;13.764;2022-11-22T05:19:01;19.90;69.30
75738;DHT22;64356;45.638;13.764;2022-11-22T05:21:27;19.90;69.50
75738;DHT22;64356;45.638;13.764;2022-11-22T05:23:53;19.80;69.00
75738;DHT22;64356;45.638;13.764;2022-11-22T05:26:27;19.90;70.00
75738;DHT22;64356;45.638;13.764;2022-11-22T05:28:54;19.90;68.60
75738;DHT22;64356;45.638;13.764;2022-11-22T05:31:23;19.90;68.60
75738;DHT22;64356;45.638;13.764;2022-11-22T05:33:50;19.80;68.40
75738;DHT22;64356;45.638;13.764;2022-11-22T05:36:17;19.80;68.50
75738;DHT22;64356;45.638;13.764;2022-11-22T05:38:43;19.90;69.10
75738;DHT22;64356;45.638;13.764;2022-11-22T05:41:11;19.90;68.90
75738;DHT22;64356;45.638;13.764;2022-11-22T05:43:37;19.80;68.90
75738;DHT22;64356;45.638;13.764;2022-11-22T05:48:37;19.80;68.80
75738;DHT22;64356;45.638;13.764;2022-11-22T05:51:09;19.80;68.90
75738;DHT22;64356;45.638;13.764;2022-11-22T05:53:35;19.80;68.80
75738;DHT22;64356;45.638;13.764;2022-11-22T05:56:04;19.80;68.20
75738;DHT22;64356;45.638;13.764;2022-11-22T05:58:30;19.80;68.90
75738;DHT22;64356;45.638;13.764;2022-11-22T06:00:55;19.80;67.80
75738;DHT22;64356;45.638;13.764;2022-11-22T06:03:21;19.70;67.50
75738;DHT22;64356;45.638;13.764;2022-11-22T06:05:53;19.80;68.80
75738;DHT22;64356;45.638;13.764;2022-11-22T06:08:18;19.80;68.30
75738;DHT22;64356;45.638;13.764;2022-11-22T06:10:44;19.80;68.10
75738;DHT22;64356;45.638;13.764;2022-11-22T06:13:10;19.80;68.30
75738;DHT22;64356;45.638;13.764;2022-11-22T06:15:35;19.70;68.30
75738;DHT22;64356;45.638;13.764;2022-11-22T06:18:01;19.70;68.30
75738;DHT22;64356;45.638;13.764;2022-11-22T06:20:26;19.70;68.20
75738;DHT22;64356;45.638;13.764;2022-11-22T06:22:52;19.70;67.50
75738;DHT22;64356;45.638;13.764;2022-11-22T06:25:18;19.70;67.10
75738;DHT22;64356;45.638;13.764;2022-11-22T06:27:43;19.70;67.60
75738;DHT22;64356;45.638;13.764;2022-11-22T06:30:09;19.70;67.00
75738;DHT22;64356;45.638;13.764;2022-11-22T06:32:35;19.70;65.50
75738;DHT22;64356;45.638;13.764;2022-11-22T06:35:02;19.70;67.00
75738;DHT22;64356;45.638;13.764;2022-11-22T06:37:28;19.70;67.00
75738;DHT22;64356;45.638;13.764;2022-11-22T06:39:54;19.70;67.80
75738;DHT22;64356;45.638;13.764;2022-11-22T06:42:20;19.70;67.50
75738;DHT22;64356;45.638;13.764;2022-11-22T06:44:45;19.80;67.50
75738;DHT22;64356;45.638;13.764;2022-11-22T06:47:11;19.80;67.60
75738;DHT22;64356;45.638;13.764;2022-11-22T06:49:37;19.80;67.60
75738;DHT22;64356;45.638;13.764;2022-11-22T06:52:02;19.80;67.20
75738;DHT22;64356;45.638;13.764;2022-11-22T06:54:28;19.80;67.40
75738;DHT22;64356;45.638;13.764;2022-11-22T06:56:54;19.90;66.70
75738;DHT22;64356;45.638;13.764;2022-11-22T06:59:19;19.80;66.80
75738;DHT22;64356;45.638;13.764;2022-11-22T07:01:45;19.80;66.70
75738;DHT22;64356;45.638;13.764;2022-11-22T07:04:11;19.80;66.90
75738;DHT22;64356;45.638;13.764;2022-11-22T07:06:37;19.80;66.70
75738;DHT22;64356;45.638;13.764;2022-11-22T07:09:06;19.80;65.60
75738;DHT22;64356;45.638;13.764;2022-11-22T07:11:32;19.80;66.40
75738;DHT22;64356;45.638;13.764;2022-11-22T07:14:00;19.80;66.90
75738;DHT22;64356;45.638;13.764;2022-11-22T07:16:26;19.80;67.00
75738;DHT22;64356;45.638;13.764;2022-11-22T07:18:52;19.80;66.90
75738;DHT22;64356;45.638;13.764;2022-11-22T07:21:20;19.80;66.50
75738;DHT22;64356;45.638;13.764;2022-11-22T07:23:48;19.90;67.10
75738;DHT22;64356;45.638;13.764;2022-11-22T07:26:15;19.90;66.10
75738;DHT22;64356;45.638;13.764;2022-11-22T07:28:42;19.90;66.40
75738;DHT22;64356;45.638;13.764;2022-11-22T07:31:09;19.90;67.00
75738;DHT22;64356;45.638;13.764;2022-11-22T07:33:35;19.90;66.60
75738;DHT22;64356;45.638;13.764;2022-11-22T07:36:09;19.90;66.70
75738;DHT22;64356;45.638;13.764;2022-11-22T07:38:35;19.90;66.80
75738;DHT22;64356;45.638;13.764;2022-11-22T07:41:01;19.90;65.90
75738;DHT22;64356;45.638;13.764;2022-11-22T07:43:27;19.90;65.80
75738;DHT22;64356;45.638;13.764;2022-11-22T07:46:00;19.90;66.40
75738;DHT22;64356;45.638;13.764;2022-11-22T07:48:26;19.90;66.00
75738;DHT22;64356;45.638;13.764;2022-11-22T07:50:52;19.90;65.80
75738;DHT22;64356;45.638;13.764;2022-11-22T07:53:17;19.90;66.10
75738;DHT22;64356;45.638;13.764;2022-11-22T07:55:43;19.90;66.50
75738;DHT22;64356;45.638;13.764;2022-11-22T07:58:09;19.90;65.40
75738;DHT22;64356;45.638;13.764;2022-11-22T08:00:35;19.90;65.30
75738;DHT22;64356;45.638;13.764;2022-11-22T08:03:00;19.90;65.80
75738;DHT22;64356;45.638;13.764;2022-11-22T08:05:26;19.90;65.60
75738;DHT22;64356;45.638;13.764;2022-11-22T08:07:52;19.90;65.80
75738;DHT22;64356;45.638;13.764;2022-11-22T08:10:19;19.90;66.20
75738;DHT22;64356;45.638;13.764;2022-11-22T08:12:45;19.80;65.70
75738;DHT22;64356;45.638;13.764;2022-11-22T08:15:12;19.80;65.40
75738;DHT22;64356;45.638;13.764;2022-11-22T08:17:38;19.80;65.90
75738;DHT22;64356;45.638;13.764;2022-11-22T08:20:05;19.80;66.20
75738;DHT22;64356;45.638;13.764;2022-11-22T08:22:31;19.80;65.90
75738;DHT22;64356;45.638;13.764;2022-11-22T08:24:56;19.80;65.50
75738;DHT22;64356;45.638;13.764;2022-11-22T08:27:23;19.70;65.40
75738;DHT22;64356;45.638;13.764;2022-11-22T08:29:49;19.70;65.20
75738;DHT22;64356;45.638;13.764;2022-11-22T08:32:14;19.70;64.70
75738;DHT22;64356;45.638;13.764;2022-11-22T08:34:40;19.60;64.20
75738;DHT22;64356;45.638;13.764;2022-11-22T08:37:06;19.60;63.30
75738;DHT22;64356;45.638;13.764;2022-11-22T08:39:31;19.60;63.50
75738;DHT22;64356;45.638;13.764;2022-11-22T08:41:57;19.60;62.60
75738;DHT22;64356;45.638;13.764;2022-11-22T08:44:23;19.60;62.50
75738;DHT22;64356;45.638;13.764;2022-11-22T08:46:48;19.50;62.50
75738;DHT22;64356;45.638;13.764;2022-11-22T08:49:14;19.50;62.30
75738;DHT22;64356;45.638;13.764;2022-11-22T08:51:40;19.50;62.30
75738;DHT22;64356;45.638;13.764;2022-11-22T08:54:11;19.50;62.50
75738;DHT22;64356;45.638;13.764;2022-11-22T08:56:36;19.50;62.60
75738;DHT22;64356;45.638;13.764;2022-11-22T08:59:02;19.50;62.40
75738;DHT22;64356;45.638;13.764;2022-11-22T09:01:28;19.50;62.30
75738;DHT22;64356;45.638;13.764;2022-11-22T09:03:53;19.50;61.90
75738;DHT22;64356;45.638;13.764;2022-11-22T09:06:20;19.50;61.30
75738;DHT22;64356;45.638;13.764;2022-11-22T09:08:45;19.40;61.40
75738;DHT22;64356;45.638;13.764;2022-11-22T09:11:16;19.50;61.70
75738;DHT22;64356;45.638;13.764;2022-11-22T09:13:42;19.40;61.60
75738;DHT22;64356;45.638;13.764;2022-11-22T09:16:13;19.40;61.60
75738;DHT22;64356;45.638;13.764;2022-11-22T09:18:40;19.40;61.30
75738;DHT22;64356;45.638;13.764;2022-11-22T09:21:09;19.30;61.50
75738;DHT22;64356;45.638;13.764;2022-11-22T09:23:35;19.30;61.30
75738;DHT22;64356;45.638;13.764;2022-11-22T09:26:05;19.30;61.10
75738;DHT22;64356;45.638;13.764;2022-11-22T09:28:31;19.30;60.80
75738;DHT22;64356;45.638;13.764;2022-11-22T09:31:01;19.20;60.50
75738;DHT22;64356;45.638;13.764;2022-11-22T09:33:28;19.20;61.00
75738;DHT22;64356;45.638;13.764;2022-11-22T09:36:04;19.20;59.70
75738;DHT22;64356;45.638;13.764;2022-11-22T09:38:30;19.20;57.70
75738;DHT22;64356;45.638;13.764;2022-11-22T09:40:57;19.10;56.90
75738;DHT22;64356;45.638;13.764;2022-11-22T09:43:31;19.00;56.70
75738;DHT22;64356;45.638;13.764;2022-11-22T09:52:31;18.70;61.60
75738;DHT22;64356;45.638;13.764;2022-11-22T09:55:25;18.80;62.30
75738;DHT22;64356;45.638;13.764;2022-11-22T09:58:28;18.80;62.00
75738;DHT22;64356;45.638;13.764;2022-11-22T10:01:07;18.80;63.10
75738;DHT22;64356;45.638;13.764;2022-11-22T10:06:15;18.90;61.20
75738;DHT22;64356;45.638;13.764;2022-11-22T10:11:39;19.00;62.30
75738;DHT22;64356;45.638;13.764;2022-11-22T10:14:28;19.00;63.30
75738;DHT22;64356;45.638;13.764;2022-11-22T10:19:47;19.10;62.60
75738;DHT22;64356;45.638;13.764;2022-11-22T10:22:14;19.10;62.10
75738;DHT22;64356;45.638;13.764;2022-11-22T10:24:41;19.10;61.20
75738;DHT22;64356;45.638;13.764;2022-11-22T10:27:14;19.10;61.00
75738;DHT22;64356;45.638;13.764;2022-11-22T10:30:03;19.10;61.50
75738;DHT22;64356;45.638;13.764;2022-11-22T10:32:47;19.10;61.80
75738;DHT22;64356;45.638;13.764;2022-11-22T10:40:56;19.20;61.50
75738;DHT22;64356;45.638;13.764;2022-11-22T10:43:38;19.10;61.40
75738;DHT22;64356;45.638;13.764;2022-11-22T10:46:28;19.10;60.90
75738;DHT22;64356;45.638;13.764;2022-11-22T10:49:16;19.10;61.20
75738;DHT22;64356;45.638;13.764;2022-11-22T10:52:15;19.10;60.60
75738;DHT22;64356;45.638;13.764;2022-11-22T10:55:10;19.00;61.50
75738;DHT22;64356;45.638;13.764;2022-11-22T10:57:56;19.10;60.40
75738;DHT22;64356;45.638;13.764;2022-11-22T11:00:28;19.10;61.40
75738;DHT22;64356;45.638;13.764;2022-11-22T11:07:59;19.00;60.10
75738;DHT22;64356;45.638;13.764;2022-11-22T11:10:31;19.00;60.60
75738;DHT22;64356;45.638;13.764;2022-11-22T11:13:03;19.00;60.30
75738;DHT22;64356;45.638;13.764;2022-11-22T11:18:16;19.00;59.70
75738;DHT22;64356;45.638;13.764;2022-11-22T11:20:43;19.00;61.30
75738;DHT22;64356;45.638;13.764;2022-11-22T11:23:12;19.00;60.60
75738;DHT22;64356;45.638;13.764;2022-11-22T11:25:40;19.00;61.10
75738;DHT22;64356;45.638;13.764;2022-11-22T11:28:15;18.90;60.50
75738;DHT22;64356;45.638;13.764;2022-11-22T11:30:55;18.90;59.60
75738;DHT22;64356;45.638;13.764;2022-11-22T11:33:31;18.90;60.10
75738;DHT22;64356;45.638;13.764;2022-11-22T11:36:14;18.90;61.30
75738;DHT22;64356;45.638;13.764;2022-11-22T11:41:28;18.80;59.90
75738;DHT22;64356;45.638;13.764;2022-11-22T11:43:59;18.80;60.10
75738;DHT22;64356;45.638;13.764;2022-11-22T11:46:25;18.80;60.60
75738;DHT22;64356;45.638;13.764;2022-11-22T11:48:53;18.80;60.20
75738;DHT22;64356;45.638;13.764;2022-11-22T11:51:25;18.80;60.60
75738;DHT22;64356;45.638;13.764;2022-11-22T11:56:33;18.90;60.80
75738;DHT22;64356;45.638;13.764;2022-11-22T11:59:06;18.90;60.90
75738;DHT22;64356;45.638;13.764;2022-11-22T12:01:35;18.90;60.90
75738;DHT22;64356;45.638;13.764;2022-11-22T12:04:03;18.90;59.40
75738;DHT22;64356;45.638;13.764;2022-11-22T12:06:31;18.90;59.80
75738;DHT22;64356;45.638;13.764;2022-11-22T12:08:59;18.80;59.20
75738;DHT22;64356;45.638;13.764;2022-11-22T12:11:42;18.80;60.60
75738;DHT22;64356;45.638;13.764;2022-11-22T12:14:12;18.80;60.30
75738;DHT22;64356;45.638;13.764;2022-11-22T12:16:45;18.80;60.40
75738;DHT22;64356;45.638;13.764;2022-11-22T12:19:27;18.80;59.70
75738;DHT22;64356;45.638;13.764;2022-11-22T12:22:02;18.80;59.80
75738;DHT22;64356;45.638;13.764;2022-11-22T12:24:39;18.80;59.40
75738;DHT22;64356;45.638;13.764;2022-11-22T12:27:10;18.80;59.00
75738;DHT22;64356;45.638;13.764;2022-11-22T12:29:39;18.70;58.80
75738;DHT22;64356;45.638;13.764;2022-11-22T12:32:19;18.70;59.70
75738;DHT22;64356;45.638;13.764;2022-11-22T12:40:30;18.70;58.60
75738;DHT22;64356;45.638;13.764;2022-11-22T12:43:06;18.80;58.50
75738;DHT22;64356;45.638;13.764;2022-11-22T12:45:42;18.80;59.30
75738;DHT22;64356;45.638;13.764;2022-11-22T12:48:16;18.90;59.90
75738;DHT22;64356;45.638;13.764;2022-11-22T12:50:54;18.90;61.10
75738;DHT22;64356;45.638;13.764;2022-11-22T12:53:29;18.90;61.10
75738;DHT22;64356;45.638;13.764;2022-11-22T12:58:50;19.00;62.20
75738;DHT22;64356;45.638;13.764;2022-11-22T13:09:35;19.20;62.40
75738;DHT22;64356;45.638;13.764;2022-11-22T13:12:12;19.20;62.00
75738;DHT22;64356;45.638;13.764;2022-11-22T13:14:43;19.30;59.60
75738;DHT22;64356;45.638;13.764;2022-11-22T13:17:11;19.30;60.60
75738;DHT22;64356;45.638;13.764;2022-11-22T13:19:53;19.40;61.70
75738;DHT22;64356;45.638;13.764;2022-11-22T13:27:41;19.50;59.90
75738;DHT22;64356;45.638;13.764;2022-11-22T13:30:29;19.50;60.70
75738;DHT22;64356;45.638;13.764;2022-11-22T13:32:57;19.50;59.40
75738;DHT22;64356;45.638;13.764;2022-11-22T13:35:33;19.60;59.50
75738;DHT22;64356;45.638;13.764;2022-11-22T13:38:11;19.60;59.80
75738;DHT22;64356;45.638;13.764;2022-11-22T13:40:42;19.60;61.00
75738;DHT22;64356;45.638;13.764;2022-11-22T13:45:54;19.60;58.00
75738;DHT22;64356;45.638;13.764;2022-11-22T13:51:05;19.60;58.70
75738;DHT22;64356;45.638;13.764;2022-11-22T13:53:33;19.70;58.90
75738;DHT22;64356;45.638;13.764;2022-11-22T14:06:56;19.80;60.20
75738;DHT22;64356;45.638;13.764;2022-11-22T14:09:27;19.80;60.60
75738;DHT22;64356;45.638;13.764;2022-11-22T14:20:32;20.00;60.10
75738;DHT22;64356;45.638;13.764;2022-11-22T14:23:21;20.00;59.80
75738;DHT22;64356;45.638;13.764;2022-11-22T14:31:24;19.80;51.50
75738;DHT22;64356;45.638;13.764;2022-11-22T14:34:17;19.60;57.60
75738;DHT22;64356;45.638;13.764;2022-11-22T14:36:44;19.70;57.90
75738;DHT22;64356;45.638;13.764;2022-11-22T14:45:07;19.80;58.20
75738;DHT22;64356;45.638;13.764;2022-11-22T14:50:37;19.80;58.10
75738;DHT22;64356;45.638;13.764;2022-11-22T14:53:33;19.90;58.10
75738;DHT22;64356;45.638;13.764;2022-11-22T14:56:10;19.90;57.50
75738;DHT22;64356;45.638;13.764;2022-11-22T14:58:42;19.90;58.40
75738;DHT22;64356;45.638;13.764;2022-11-22T15:17:39;19.90;58.70
75738;DHT22;64356;45.638;13.764;2022-11-22T15:20:29;19.90;58.00
75738;DHT22;64356;45.638;13.764;2022-11-22T15:23:03;20.00;58.10
75738;DHT22;64356;45.638;13.764;2022-11-22T15:25:29;19.90;58.40
75738;DHT22;64356;45.638;13.764;2022-11-22T15:27:54;20.00;58.30
75738;DHT22;64356;45.638;13.764;2022-11-22T15:30:21;19.90;57.50
75738;DHT22;64356;45.638;13.764;2022-11-22T15:32:51;19.90;57.10
75738;DHT22;64356;45.638;13.764;2022-11-22T15:35:20;19.90;58.20
75738;DHT22;64356;45.638;13.764;2022-11-22T15:38:02;19.90;58.80
75738;DHT22;64356;45.638;13.764;2022-11-22T15:40:33;19.90;58.70
75738;DHT22;64356;45.638;13.764;2022-11-22T15:43:02;20.00;58.30
75738;DHT22;64356;45.638;13.764;2022-11-22T15:45:29;19.90;58.50
75738;DHT22;64356;45.638;13.764;2022-11-22T15:48:02;19.90;58.40
75738;DHT22;64356;45.638;13.764;2022-11-22T15:50:28;20.00;58.70
75738;DHT22;64356;45.638;13.764;2022-11-22T15:53:04;19.90;59.40
75738;DHT22;64356;45.638;13.764;2022-11-22T15:55:31;19.90;58.90
75738;DHT22;64356;45.638;13.764;2022-11-22T15:57:57;19.90;58.10
75738;DHT22;64356;45.638;13.764;2022-11-22T16:00:25;19.90;56.60
75738;DHT22;64356;45.638;13.764;2022-11-22T16:02:56;19.90;56.50
75738;DHT22;64356;45.638;13.764;2022-11-22T16:05:33;19.90;59.00
75738;DHT22;64356;45.638;13.764;2022-11-22T16:08:03;19.90;58.60
75738;DHT22;64356;45.638;13.764;2022-11-22T16:10:39;19.90;58.70
75738;DHT22;64356;45.638;13.764;2022-11-22T16:13:24;19.90;57.30
75738;DHT22;64356;45.638;13.764;2022-11-22T16:18:35;20.00;58.10
75738;DHT22;64356;45.638;13.764;2022-11-22T16:21:05;19.90;58.00
75738;DHT22;64356;45.638;13.764;2022-11-22T16:23:43;19.90;58.20
75738;DHT22;64356;45.638;13.764;2022-11-22T16:28:55;19.90;57.40
75738;DHT22;64356;45.638;13.764;2022-11-22T16:31:25;19.90;57.30
75738;DHT22;64356;45.638;13.764;2022-11-22T16:33:53;19.90;56.80
75738;DHT22;64356;45.638;13.764;2022-11-22T16:36:20;19.90;57.60
75738;DHT22;64356;45.638;13.764;2022-11-22T16:38:47;19.90;58.50
75738;DHT22;64356;45.638;13.764;2022-11-22T16:41:19;19.90;58.00
75738;DHT22;64356;45.638;13.764;2022-11-22T16:43:46;19.90;57.20
75738;DHT22;64356;45.638;13.764;2022-11-22T16:46:15;19.90;57.60
75738;DHT22;64356;45.638;13.764;2022-11-22T16:48:42;19.90;57.20
75738;DHT22;64356;45.638;13.764;2022-11-22T16:51:25;19.90;57.80
75738;DHT22;64356;45.638;13.764;2022-11-22T16:53:58;19.90;58.00
75738;DHT22;64356;45.638;13.764;2022-11-22T16:56:24;19.90;57.80
75738;DHT22;64356;45.638;13.764;2022-11-22T16:58:51;19.90;56.40
75738;DHT22;64356;45.638;13.764;2022-11-22T17:01:20;19.80;57.30
75738;DHT22;64356;45.638;13.764;2022-11-22T17:03:47;19.80;57.30
75738;DHT22;64356;45.638;13.764;2022-11-22T17:06:19;19.80;57.80
75738;DHT22;64356;45.638;13.764;2022-11-22T17:08:45;19.80;57.00
75738;DHT22;64356;45.638;13.764;2022-11-22T17:11:13;19.80;57.10
75738;DHT22;64356;45.638;13.764;2022-11-22T17:13:39;19.80;56.90
75738;DHT22;64356;45.638;13.764;2022-11-22T17:16:05;19.80;57.00
75738;DHT22;64356;45.638;13.764;2022-11-22T17:18:31;19.80;57.60
75738;DHT22;64356;45.638;13.764;2022-11-22T17:20:57;19.80;57.80
75738;DHT22;64356;45.638;13.764;2022-11-22T17:23:28;19.80;57.90
75738;DHT22;64356;45.638;13.764;2022-11-22T17:25:55;19.80;58.50
75738;DHT22;64356;45.638;13.764;2022-11-22T17:28:20;19.80;58.30
75738;DHT22;64356;45.638;13.764;2022-11-22T17:30:46;19.80;57.90